Time;durP1;ratioP1;P1;durP2;ratioP2;P2;SDS_P1;SDS_P2;PMS_P1;PMS_P2;Temp;Humidity;BMP_temperature;BMP_pressure;BME280_temperature;BME280_humidity;BME280_pressure;Samples;Min_cycle;Max_cycle;Signal;HPM_P1;HPM_P2
2023/03/20 00:00:57;;;;;;;;;;;;;;;13.66;60.82;97382.50;4972043;28;19964;-79
2023/03/20 00:03:22;;;;;;;;;;;;;;;13.88;60.14;97386.75;4969209;28;20032;-79
2023/03/20 00:05:48;;;;;;;;;;;;;;;13.86;59.90;97391.44;4972443;28;19932;-80
2023/03/20 00:08:13;;;;;;;;;;;;;;;13.94;59.65;97385.69;5004866;28;19921;-79
2023/03/20 00:10:39;;;;;;;;;;;;;;;13.89;60.00;97392.75;4980125;28;19962;-79
2023/03/20 00:13:05;;;;;;;;;;;;;;;13.95;59.67;97395.13;4999690;28;19926;-80
2023/03/20 00:15:37;;;;;;;;;;;;;;;13.84;59.90;97385.69;5008591;28;19921;-79
2023/03/20 00:18:02;;;;;;;;;;;;;;;13.84;60.05;97391.69;4973327;28;20389;-80
2023/03/20 00:20:28;;;;;;;;;;;;;;;13.83;59.92;97397.97;5003405;28;19925;-79
2023/03/20 00:22:53;;;;;;;;;;;;;;;13.97;59.40;97392.25;4995944;28;19917;-80
2023/03/20 00:25:21;;;;;;;;;;;;;;;13.97;59.67;97403.50;4989533;28;19917;-80
2023/03/20 00:27:46;;;;;;;;;;;;;;;13.93;59.77;97399.84;4973712;28;20020;-80
2023/03/20 00:30:15;;;;;;;;;;;;;;;13.99;59.36;97406.63;4990098;28;20009;-80
2023/03/20 00:32:40;;;;;;;;;;;;;;;14.03;59.27;97397.22;5004417;28;19976;-80
2023/03/20 00:35:29;;;;;;;;;;;;;;;13.99;59.37;97403.25;4985972;28;19957;-80
2023/03/20 00:37:57;;;;;;;;;;;;;;;13.97;59.67;97400.88;4995445;28;19922;-80
2023/03/20 00:40:26;;;;;;;;;;;;;;;13.93;59.52;97410.31;4997639;28;19925;-80
2023/03/20 00:42:56;;;;;;;;;;;;;;;13.88;60.24;97407.69;4989755;28;20281;-79
2023/03/20 00:45:21;;;;;;;;;;;;;;;13.88;59.77;97405.06;4980125;28;19960;-80
2023/03/20 00:47:47;;;;;;;;;;;;;;;13.72;60.63;97416.53;4974196;28;20381;-80
2023/03/20 00:50:14;;;;;;;;;;;;;;;13.78;60.38;97407.66;4978096;28;19918;-81
2023/03/20 00:52:40;;;;;;;;;;;;;;;13.81;60.25;97414.97;4991012;28;19953;-80
2023/03/20 00:55:05;;;;;;;;;;;;;;;13.79;60.72;97406.59;4959553;28;19961;-81
2023/03/20 00:57:33;;;;;;;;;;;;;;;13.72;60.44;97413.91;4963408;28;20043;-81
2023/03/20 01:00:00;;;;;;;;;;;;;;;13.76;60.38;97415.78;4966230;28;20441;-80
2023/03/20 01:02:25;;;;;;;;;;;;;;;13.81;60.10;97410.53;4987551;28;19918;-79
2023/03/20 01:04:51;;;;;;;;;;;;;;;13.82;60.18;97412.09;4980567;28;19936;-81
2023/03/20 01:07:17;;;;;;;;;;;;;;;13.94;59.73;97411.09;4988028;28;19918;-80
2023/03/20 01:09:42;;;;;;;;;;;;;;;13.84;59.97;97411.84;4968225;28;20379;-80
2023/03/20 01:12:09;;;;;;;;;;;;;;;13.88;60.18;97412.91;4990061;28;19921;-80
2023/03/20 01:14:34;;;;;;;;;;;;;;;13.80;60.15;97416.81;5002672;28;19922;-81
2023/03/20 01:17:00;;;;;;;;;;;;;;;13.80;60.31;97423.88;4973459;28;19949;-80
2023/03/20 01:19:25;;;;;;;;;;;;;;;13.91;59.81;97416.84;4974742;28;20461;-81
2023/03/20 01:21:50;;;;;;;;;;;;;;;13.90;59.97;97420.47;4980123;28;20290;-80
2023/03/20 01:24:16;;;;;;;;;;;;;;;14.02;59.93;97429.69;4975742;28;19968;-80
2023/03/20 01:26:42;;;;;;;;;;;;;;;13.90;60.24;97433.56;4984798;28;20313;-80
2023/03/20 01:29:13;;;;;;;;;;;;;;;13.89;59.86;97427.56;4983554;28;19925;-81
2023/03/20 01:31:38;;;;;;;;;;;;;;;13.92;59.94;97431.50;4990646;28;19973;-81
2023/03/20 01:34:05;;;;;;;;;;;;;;;13.87;60.27;97432.28;4993515;28;19965;-80
2023/03/20 01:36:30;;;;;;;;;;;;;;;13.91;60.14;97427.31;4968605;28;20246;-80
2023/03/20 01:38:56;;;;;;;;;;;;;;;13.88;60.31;97440.91;4986660;28;19918;-80
2023/03/20 01:41:22;;;;;;;;;;;;;;;13.96;60.09;97435.94;4988143;28;19926;-80
2023/03/20 01:43:47;;;;;;;;;;;;;;;13.95;60.19;97431.78;4987889;28;20308;-80
2023/03/20 01:46:18;;;;;;;;;;;;;;;13.94;60.46;97427.56;4988051;28;20381;-80
2023/03/20 01:48:50;;;;;;;;;;;;;;;13.93;60.34;97439.09;4985648;28;19929;-80
2023/03/20 01:51:21;;;;;;;;;;;;;;;13.92;60.24;97432.28;4989603;28;19947;-81
2023/03/20 01:53:47;;;;;;;;;;;;;;;13.95;60.17;97428.34;4985328;28;19918;-81
2023/03/20 01:56:13;;;;;;;;;;;;;;;13.97;59.95;97427.06;4989660;28;20404;-80
2023/03/20 01:58:40;;;;;;;;;;;;;;;13.90;60.38;97439.63;4989439;28;19922;-80
2023/03/20 02:01:05;;;;;;;;;;;;;;;13.84;60.50;97440.63;4989013;28;20432;-81
2023/03/20 02:03:31;;;;;;;;;;;;;;;13.85;60.17;97447.47;4982597;28;20072;-81
2023/03/20 02:05:56;;;;;;;;;;;;;;;13.90;60.38;97451.91;4961111;28;19922;-80
2023/03/20 02:08:23;;;;;;;;;;;;;;;13.84;60.63;97448.50;5002508;28;19945;-81
2023/03/20 02:10:49;;;;;;;;;;;;;;;13.93;60.32;97449.56;4983321;28;19922;-80
2023/03/20 02:13:14;;;;;;;;;;;;;;;13.91;60.44;97456.09;4950420;28;19918;-80
2023/03/20 02:15:56;;;;;;;;;;;;;;;13.96;60.45;97446.41;4989181;28;20278;-80
2023/03/20 02:18:21;;;;;;;;;;;;;;;14.03;60.04;97441.75;4982991;28;19936;-81
2023/03/20 02:20:56;;;;;;;;;;;;;;;14.09;59.95;97445.13;4989431;28;19917;-81
2023/03/20 02:23:36;;;;;;;;;;;;;;;14.01;60.18;97456.91;4991051;28;20349;-81
2023/03/20 02:26:01;;;;;;;;;;;;;;;13.99;60.19;97451.13;4962226;28;19922;-80
2023/03/20 02:28:32;;;;;;;;;;;;;;;13.88;60.47;97446.13;4988372;28;19924;-80
2023/03/20 02:31:16;;;;;;;;;;;;;;;13.97;60.29;97458.47;4972959;28;19925;-80
2023/03/20 02:33:53;;;;;;;;;;;;;;;13.93;60.66;97456.63;5007359;28;20652;-80
2023/03/20 02:36:18;;;;;;;;;;;;;;;13.91;60.35;97453.47;4988696;28;20313;-80
2023/03/20 02:38:44;;;;;;;;;;;;;;;13.88;60.43;97454.78;4986051;28;19917;-80
2023/03/20 02:41:28;;;;;;;;;;;;;;;13.96;60.46;97459.50;5003011;28;20488;-80
2023/03/20 02:44:00;;;;;;;;;;;;;;;13.83;60.52;97462.63;4987203;28;19918;-80
2023/03/20 02:46:25;;;;;;;;;;;;;;;13.78;60.86;97452.16;5002372;28;20429;-80
2023/03/20 02:48:54;;;;;;;;;;;;;;;13.74;61.06;97459.72;5003945;28;19921;-80
2023/03/20 02:51:34;;;;;;;;;;;;;;;13.81;60.89;97455.03;4985628;28;19968;-80
2023/03/20 02:54:07;;;;;;;;;;;;;;;13.81;61.00;97460.28;4988367;28;19969;-81
2023/03/20 02:56:35;;;;;;;;;;;;;;;13.80;61.13;97456.06;4946710;28;19926;-80
2023/03/20 02:59:11;;;;;;;;;;;;;;;13.76;61.08;97449.78;4985365;28;19926;-81
2023/03/20 03:01:43;;;;;;;;;;;;;;;13.75;61.30;97447.44;4968238;28;19977;-81
2023/03/20 03:04:10;;;;;;;;;;;;;;;13.75;61.33;97448.22;4965357;28;19918;-81
2023/03/20 03:06:36;;;;;;;;;;;;;;;13.82;60.88;97440.91;4955990;28;19925;-81
2023/03/20 03:09:21;;;;;;;;;;;;;;;13.75;61.17;97440.34;4971339;28;19930;-80
2023/03/20 03:11:52;;;;;;;;;;;;;;;13.82;61.22;97425.19;4982440;28;19945;-80
2023/03/20 03:14:37;;;;;;;;;;;;;;;13.81;61.33;97434.09;4971312;28;19918;-79
2023/03/20 03:17:04;;;;;;;;;;;;;;;13.77;61.37;97427.78;4976702;28;20397;-79
2023/03/20 03:19:30;;;;;;;;;;;;;;;13.72;61.28;97427.00;4985492;28;20024;-80
2023/03/20 03:21:55;;;;;;;;;;;;;;;13.61;61.78;97428.81;4971262;28;19973;-79
2023/03/20 03:24:31;;;;;;;;;;;;;;;13.68;61.98;97435.38;4974516;28;19933;-81
2023/03/20 03:26:58;;;;;;;;;;;;;;;13.68;61.58;97437.97;4987672;28;20394;-80
2023/03/20 03:29:23;;;;;;;;;;;;;;;13.65;61.73;97438.50;4976040;28;19972;-80
2023/03/20 03:31:49;;;;;;;;;;;;;;;13.77;61.62;97435.66;4987624;28;19966;-80
2023/03/20 03:34:15;;;;;;;;;;;;;;;13.82;61.24;97434.88;4991993;28;19917;-79
2023/03/20 03:37:01;;;;;;;;;;;;;;;13.83;61.25;97437.25;4943895;28;19929;-80
2023/03/20 03:39:37;;;;;;;;;;;;;;;13.74;61.13;97438.00;4997031;28;19924;-80
2023/03/20 03:42:08;;;;;;;;;;;;;;;13.90;61.28;97441.44;4971718;28;19941;-80
2023/03/20 03:44:55;;;;;;;;;;;;;;;13.81;61.39;97441.16;4983063;28;19918;-80
2023/03/20 03:47:21;;;;;;;;;;;;;;;13.82;61.35;97445.34;4957064;28;20452;-81
2023/03/20 03:49:48;;;;;;;;;;;;;;;13.81;61.33;97457.66;5002984;28;19926;-81
2023/03/20 03:52:18;;;;;;;;;;;;;;;13.79;61.77;97461.56;4947276;28;19996;-80
2023/03/20 03:54:47;;;;;;;;;;;;;;;13.72;61.76;97461.03;4988192;28;20329;-80
2023/03/20 03:57:13;;;;;;;;;;;;;;;13.72;61.86;97461.81;4963648;28;19922;-80
2023/03/20 03:59:40;;;;;;;;;;;;;;;13.62;61.97;97457.34;4984357;28;20465;-81
2023/03/20 04:02:07;;;;;;;;;;;;;;;13.79;62.06;97466.78;4972834;28;20013;-80
2023/03/20 04:04:32;;;;;;;;;;;;;;;13.70;61.79;97452.66;4958470;28;19924;-80
2023/03/20 04:06:57;;;;;;;;;;;;;;;13.63;61.98;97458.91;4974806;28;19922;-80
2023/03/20 04:09:23;;;;;;;;;;;;;;;13.73;61.79;97455.53;4995863;28;20250;-80
2023/03/20 04:11:51;;;;;;;;;;;;;;;13.64;62.09;97451.81;4953704;28;20381;-80
2023/03/20 04:14:17;;;;;;;;;;;;;;;13.75;62.02;97455.28;5007269;28;19949;-80
2023/03/20 04:16:42;;;;;;;;;;;;;;;13.70;62.04;97452.66;4963310;28;19957;-81
2023/03/20 04:19:07;;;;;;;;;;;;;;;13.74;61.78;97449.25;4963859;28;19921;-80
2023/03/20 04:21:33;;;;;;;;;;;;;;;13.72;61.89;97448.72;4973446;28;19918;-79
2023/03/20 04:23:58;;;;;;;;;;;;;;;13.76;61.97;97451.59;4974267;28;19921;-80
2023/03/20 04:26:23;;;;;;;;;;;;;;;13.76;61.79;97457.66;4974395;28;20381;-80
2023/03/20 04:28:49;;;;;;;;;;;;;;;13.67;61.93;97464.41;4974936;28;19926;-80
2023/03/20 04:31:14;;;;;;;;;;;;;;;13.62;62.36;97462.56;4974369;28;19918;-80
2023/03/20 04:33:40;;;;;;;;;;;;;;;13.68;61.98;97456.28;4989070;28;19917;-79
2023/03/20 04:36:06;;;;;;;;;;;;;;;13.54;62.40;97457.81;4969155;28;19921;-78
2023/03/20 04:38:31;;;;;;;;;;;;;;;13.61;62.37;97461.00;4954635;28;19929;-78
2023/03/20 04:40:57;;;;;;;;;;;;;;;13.55;62.51;97458.59;4989517;28;19918;-77
2023/03/20 04:43:22;;;;;;;;;;;;;;;13.61;62.35;97461.00;4991570;28;19976;-78
2023/03/20 04:45:47;;;;;;;;;;;;;;;13.60;62.43;97466.47;4973405;28;19921;-77
2023/03/20 04:48:12;;;;;;;;;;;;;;;13.63;62.65;97463.34;4989896;28;19922;-78
2023/03/20 04:50:38;;;;;;;;;;;;;;;13.71;62.43;97469.91;4982804;28;19918;-77
2023/03/20 04:53:03;;;;;;;;;;;;;;;13.66;62.35;97457.63;4984614;28;20297;-77
2023/03/20 04:55:28;;;;;;;;;;;;;;;13.69;62.12;97462.31;4988063;28;20294;-78
2023/03/20 04:57:54;;;;;;;;;;;;;;;13.67;61.80;97459.16;5001115;28;19928;-77
2023/03/20 05:00:19;;;;;;;;;;;;;;;13.66;62.23;97455.78;4972614;28;19918;-78
2023/03/20 05:02:45;;;;;;;;;;;;;;;13.48;62.72;97449.16;4990075;28;20443;-78
2023/03/20 05:05:10;;;;;;;;;;;;;;;13.48;62.99;97453.59;4988375;28;19925;-78
2023/03/20 05:07:35;;;;;;;;;;;;;;;13.53;62.72;97464.09;4990213;28;19917;-78
2023/03/20 05:10:01;;;;;;;;;;;;;;;13.62;62.37;97467.81;4987751;28;19928;-78
2023/03/20 05:12:26;;;;;;;;;;;;;;;13.73;61.92;97468.63;4988963;28;20016;-77
2023/03/20 05:14:53;;;;;;;;;;;;;;;13.78;61.76;97468.63;4983207;28;20020;-78
2023/03/20 05:17:19;;;;;;;;;;;;;;;13.61;62.27;97468.06;4971744;28;19965;-78
2023/03/20 05:19:45;;;;;;;;;;;;;;;13.57;62.73;97473.03;4988435;28;19917;-77
2023/03/20 05:22:10;;;;;;;;;;;;;;;13.62;62.46;97473.03;4990778;28;19924;-78
2023/03/20 05:24:36;;;;;;;;;;;;;;;13.64;62.31;97468.34;4989387;28;19996;-78
2023/03/20 05:27:01;;;;;;;;;;;;;;;13.55;62.60;97461.22;4972223;28;19918;-78
2023/03/20 05:29:26;;;;;;;;;;;;;;;13.62;62.44;97473.03;4983295;28;19971;-78
2023/03/20 05:31:52;;;;;;;;;;;;;;;13.67;62.08;97467.81;4968247;28;19918;-77
2023/03/20 05:34:18;;;;;;;;;;;;;;;13.56;62.52;97465.44;4960861;28;19932;-79
2023/03/20 05:36:43;;;;;;;;;;;;;;;13.61;62.41;97468.84;4967948;28;19922;-78
2023/03/20 05:39:08;;;;;;;;;;;;;;;13.59;62.50;97470.94;4948501;28;19918;-78
2023/03/20 05:41:33;;;;;;;;;;;;;;;13.59;62.48;97484.00;4988274;28;19985;-77
2023/03/20 05:43:59;;;;;;;;;;;;;;;13.58;62.47;97482.44;4983213;28;19926;-78
2023/03/20 05:46:25;;;;;;;;;;;;;;;13.70;62.20;97484.81;4959853;28;19925;-77
2023/03/20 05:48:50;;;;;;;;;;;;;;;13.73;62.03;97488.78;4974350;28;19918;-77
2023/03/20 05:51:15;;;;;;;;;;;;;;;13.67;62.16;97485.34;4972855;28;20400;-78
2023/03/20 05:53:40;;;;;;;;;;;;;;;13.60;62.44;97498.66;4994711;28;19928;-78
2023/03/20 05:56:06;;;;;;;;;;;;;;;13.67;62.62;97506.25;4989242;28;20142;-77
2023/03/20 05:58:31;;;;;;;;;;;;;;;13.63;62.29;97511.22;4961529;28;20448;-78
2023/03/20 06:00:57;;;;;;;;;;;;;;;13.66;62.27;97512.56;5002346;28;19918;-77
2023/03/20 06:03:22;;;;;;;;;;;;;;;13.78;61.99;97512.34;4976236;28;19918;-77
2023/03/20 06:05:47;;;;;;;;;;;;;;;13.83;61.88;97520.22;4986377;28;20431;-77
2023/03/20 06:08:14;;;;;;;;;;;;;;;13.76;62.32;97522.25;5002489;28;19972;-80
2023/03/20 06:10:40;;;;;;;;;;;;;;;13.74;62.52;97524.34;4995055;28;19922;-80
2023/03/20 06:13:05;;;;;;;;;;;;;;;13.49;62.71;97517.97;5003740;28;19918;-80
2023/03/20 06:15:30;;;;;;;;;;;;;;;13.63;62.42;97526.16;4969569;28;19921;-80
2023/03/20 06:17:55;;;;;;;;;;;;;;;13.53;62.58;97515.63;4986557;28;19968;-80
2023/03/20 06:20:21;;;;;;;;;;;;;;;13.53;62.92;97520.88;4956476;28;20386;-80
2023/03/20 06:22:46;;;;;;;;;;;;;;;13.52;63.02;97524.50;4988353;28;19918;-80
2023/03/20 06:25:11;;;;;;;;;;;;;;;13.58;62.90;97523.50;4974043;28;19918;-81
2023/03/20 06:27:37;;;;;;;;;;;;;;;13.56;62.81;97517.75;4988204;28;19918;-80
2023/03/20 06:30:02;;;;;;;;;;;;;;;13.49;63.25;97516.13;4986514;28;20008;-80
2023/03/20 06:32:27;;;;;;;;;;;;;;;13.70;62.99;97523.31;4967272;28;20285;-80
2023/03/20 06:34:53;;;;;;;;;;;;;;;13.63;62.74;97524.31;4988897;28;20304;-80
2023/03/20 06:37:19;;;;;;;;;;;;;;;13.67;62.57;97525.38;4982957;28;20369;-80
2023/03/20 06:39:44;;;;;;;;;;;;;;;13.70;62.34;97528.53;4990630;28;20016;-80
2023/03/20 06:42:11;;;;;;;;;;;;;;;13.66;62.40;97529.03;4966294;28;19918;-80
2023/03/20 06:44:37;;;;;;;;;;;;;;;13.72;61.73;97534.28;4986680;28;20293;-80
2023/03/20 06:47:02;;;;;;;;;;;;;;;13.72;62.25;97529.06;4971810;28;19928;-80
2023/03/20 06:49:27;;;;;;;;;;;;;;;13.42;63.58;97522.66;4985515;28;20101;-80
2023/03/20 06:51:53;;;;;;;;;;;;;;;13.66;63.10;97523.03;4985177;28;19926;-80
2023/03/20 06:54:18;;;;;;;;;;;;;;;13.70;62.52;97525.91;4986844;28;19977;-80
2023/03/20 06:56:43;;;;;;;;;;;;;;;13.63;62.53;97524.31;4993593;28;19925;-80
2023/03/20 06:59:08;;;;;;;;;;;;;;;13.63;62.91;97524.31;4972053;28;19941;-79
2023/03/20 07:01:34;;;;;;;;;;;;;;;13.59;62.44;97520.63;4956400;28;20044;-80
2023/03/20 07:04:00;;;;;;;;;;;;;;;13.69;62.68;97514.66;4990481;28;19922;-80
2023/03/20 07:06:25;;;;;;;;;;;;;;;13.61;62.62;97513.31;4984252;28;20412;-80
2023/03/20 07:08:51;;;;;;;;;;;;;;;13.60;62.91;97516.19;4985773;28;19953;-80
2023/03/20 07:11:17;;;;;;;;;;;;;;;13.61;62.94;97518.56;4999397;28;19924;-80
2023/03/20 07:13:43;;;;;;;;;;;;;;;13.63;62.95;97510.44;4985920;28;20377;-79
2023/03/20 07:16:08;;;;;;;;;;;;;;;13.62;62.98;97525.38;4988505;28;20433;-80
2023/03/20 07:18:33;;;;;;;;;;;;;;;13.74;62.24;97516.50;4966752;28;20357;-80
2023/03/20 07:21:01;;;;;;;;;;;;;;;13.63;62.29;97521.69;4971713;28;19942;-80
2023/03/20 07:23:26;;;;;;;;;;;;;;;13.50;62.56;97511.69;4984671;28;20377;-80
2023/03/20 07:25:52;;;;;;;;;;;;;;;13.60;62.65;97522.19;4966752;28;20008;-80
2023/03/20 07:28:17;;;;;;;;;;;;;;;13.57;62.79;97527.97;4986734;28;19928;-80
2023/03/20 07:30:42;;;;;;;;;;;;;;;13.56;62.63;97536.84;5001817;28;19918;-79
2023/03/20 07:33:08;;;;;;;;;;;;;;;13.64;62.74;97543.41;4986409;28;19918;-80
2023/03/20 07:35:33;;;;;;;;;;;;;;;13.64;62.63;97544.22;4963254;28;20142;-81
2023/03/20 07:37:58;;;;;;;;;;;;;;;13.67;62.61;97541.09;4962288;28;20373;-79
2023/03/20 07:40:23;;;;;;;;;;;;;;;13.58;62.60;97539.97;4966991;28;19917;-80
2023/03/20 07:42:49;;;;;;;;;;;;;;;13.61;62.58;97547.34;5003065;28;20409;-80
2023/03/20 07:45:17;;;;;;;;;;;;;;;13.60;62.59;97548.34;4989914;28;20403;-80
2023/03/20 07:47:42;;;;;;;;;;;;;;;13.63;62.86;97544.47;4990315;28;19922;-80
2023/03/20 07:50:08;;;;;;;;;;;;;;;13.64;62.72;97543.41;4975311;28;19924;-80
2023/03/20 07:52:33;;;;;;;;;;;;;;;13.58;63.07;97547.84;4978337;28;19928;-80
2023/03/20 07:54:58;;;;;;;;;;;;;;;13.57;63.28;97556.75;4987285;28;19968;-80
2023/03/20 07:57:23;;;;;;;;;;;;;;;13.62;62.92;97554.16;4959170;28;20123;-80
2023/03/20 07:59:49;;;;;;;;;;;;;;;13.75;62.25;97562.56;4973874;28;19924;-80
2023/03/20 08:02:15;;;;;;;;;;;;;;;13.76;62.23;97558.91;4991055;28;19918;-79
2023/03/20 08:04:40;;;;;;;;;;;;;;;13.77;61.86;97561.25;4958047;28;19964;-80
2023/03/20 08:07:06;;;;;;;;;;;;;;;13.74;61.81;97568.84;4968683;28;20377;-80
2023/03/20 08:09:32;;;;;;;;;;;;;;;13.73;61.97;97569.91;4986763;28;19922;-80
2023/03/20 08:11:57;;;;;;;;;;;;;;;13.66;62.01;97575.34;4974145;28;20440;-80
2023/03/20 08:14:23;;;;;;;;;;;;;;;13.70;62.04;97573.81;4966408;28;20044;-81
2023/03/20 08:16:48;;;;;;;;;;;;;;;13.68;61.55;97581.91;4974474;28;19977;-80
2023/03/20 08:19:14;;;;;;;;;;;;;;;13.64;61.56;97588.69;4974930;28;20374;-79
2023/03/20 08:21:39;;;;;;;;;;;;;;;13.48;60.64;97577.34;4974600;28;20286;-79
2023/03/20 08:24:05;;;;;;;;;;;;;;;13.60;60.61;97578.97;4989115;28;19922;-79
2023/03/20 08:26:30;;;;;;;;;;;;;;;13.66;60.97;97575.34;4972184;28;19940;-79
2023/03/20 08:28:56;;;;;;;;;;;;;;;13.59;60.87;97578.19;4989328;28;19949;-80
2023/03/20 08:31:21;;;;;;;;;;;;;;;13.63;60.82;97579.25;4991098;28;19933;-79
2023/03/20 08:33:47;;;;;;;;;;;;;;;13.71;60.71;97588.47;4991043;28;20310;-80
2023/03/20 08:36:14;;;;;;;;;;;;;;;13.59;60.77;97590.47;4959066;28;19956;-79
2023/03/20 08:38:39;;;;;;;;;;;;;;;13.55;61.01;97598.03;4974143;28;19960;-80
2023/03/20 08:41:05;;;;;;;;;;;;;;;13.51;61.27;97607.44;4990593;28;19918;-80
2023/03/20 08:43:30;;;;;;;;;;;;;;;13.64;61.14;97609.63;4990890;28;19981;-80
2023/03/20 08:45:56;;;;;;;;;;;;;;;13.49;60.84;97605.09;4957807;28;19918;-80
2023/03/20 08:48:21;;;;;;;;;;;;;;;13.53;61.00;97605.34;4958586;28;19922;-81
2023/03/20 08:50:46;;;;;;;;;;;;;;;13.58;60.78;97597.53;4988599;28;20526;-80
2023/03/20 08:53:12;;;;;;;;;;;;;;;13.65;60.81;97599.94;4988069;28;19925;-80
2023/03/20 08:55:37;;;;;;;;;;;;;;;13.62;59.96;97598.63;4972916;28;19925;-81
2023/03/20 08:58:02;;;;;;;;;;;;;;;13.61;60.83;97601.50;5006677;28;19926;-80
2023/03/20 09:00:28;;;;;;;;;;;;;;;13.67;60.32;97605.69;4985584;28;20362;-80
2023/03/20 09:02:53;;;;;;;;;;;;;;;13.60;59.74;97608.53;4990296;28;19917;-81
2023/03/20 09:05:18;;;;;;;;;;;;;;;13.66;60.28;97610.16;4973772;28;19929;-80
2023/03/20 09:07:44;;;;;;;;;;;;;;;13.73;60.03;97603.91;4959937;28;20143;-80
2023/03/20 09:10:10;;;;;;;;;;;;;;;13.73;61.33;97607.31;5002658;28;19918;-81
2023/03/20 09:12:35;;;;;;;;;;;;;;;14.11;61.02;97607.22;4995907;28;19918;-81
2023/03/20 09:15:01;;;;;;;;;;;;;;;14.48;61.72;97607.09;4990577;28;20001;-81
2023/03/20 09:17:26;;;;;;;;;;;;;;;14.79;59.12;97602.72;4985314;28;20301;-80
2023/03/20 09:19:51;;;;;;;;;;;;;;;15.14;56.65;97603.75;4990659;28;20029;-80
2023/03/20 09:22:17;;;;;;;;;;;;;;;15.29;55.62;97602.19;4989477;28;19922;-80
2023/03/20 09:24:42;;;;;;;;;;;;;;;15.55;55.45;97597.69;5003916;28;19918;-79
2023/03/20 09:27:07;;;;;;;;;;;;;;;15.93;55.15;97606.00;4973439;28;20374;-81
2023/03/20 09:29:33;;;;;;;;;;;;;;;16.17;52.45;97605.41;4973642;28;19949;-81
2023/03/20 09:31:58;;;;;;;;;;;;;;;16.10;52.88;97613.56;4974099;28;19918;-79
2023/03/20 09:34:23;;;;;;;;;;;;;;;16.02;52.23;97609.66;4973748;28;20281;-79
2023/03/20 09:36:49;;;;;;;;;;;;;;;16.07;51.46;97617.53;4989008;28;19953;-80
2023/03/20 09:39:14;;;;;;;;;;;;;;;15.86;51.28;97619.41;4989644;28;20210;-79
2023/03/20 09:41:44;;;;;;;;;;;;;;;15.81;51.63;97618.66;4987435;28;20219;-81
2023/03/20 09:44:24;;;;;;;;;;;;;;;15.58;51.34;97618.16;4970720;28;20285;-79
2023/03/20 09:47:07;;;;;;;;;;;;;;;16.05;50.04;97624.09;5005232;28;19972;-81
2023/03/20 09:49:38;;;;;;;;;;;;;;;15.89;50.02;97621.50;4989509;28;19922;-80
2023/03/20 09:52:22;;;;;;;;;;;;;;;16.00;50.43;97621.47;4983700;28;20004;-81
2023/03/20 09:54:50;;;;;;;;;;;;;;;15.85;50.32;97625.75;5014491;28;20028;-80
2023/03/20 09:57:19;;;;;;;;;;;;;;;16.19;48.84;97622.44;4972145;28;20575;-80
2023/03/20 09:59:45;;;;;;;;;;;;;;;16.40;50.02;97627.59;5005475;28;19977;-80
2023/03/20 10:02:13;;;;;;;;;;;;;;;16.34;48.85;97618.97;4972200;28;20012;-81
2023/03/20 10:04:38;;;;;;;;;;;;;;;16.46;49.50;97623.91;4989234;28;20394;-81
2023/03/20 10:07:04;;;;;;;;;;;;;;;16.58;47.93;97621.72;4988125;28;19929;-80
2023/03/20 10:09:30;;;;;;;;;;;;;;;16.32;46.09;97615.06;4969260;28;20428;-79
2023/03/20 10:12:14;;;;;;;;;;;;;;;16.30;46.61;97615.31;4988600;28;20004;-82
2023/03/20 10:14:54;;;;;;;;;;;;;;;16.02;46.38;97614.91;4989008;28;19953;-79
2023/03/20 10:17:20;;;;;;;;;;;;;;;15.83;46.48;97617.31;4971616;28;20393;-82
2023/03/20 10:19:50;;;;;;;;;;;;;;;15.71;46.83;97616.81;4990167;28;19953;-81
2023/03/20 10:22:24;;;;;;;;;;;;;;;15.82;46.62;97615.00;5011580;28;19980;-82
2023/03/20 10:25:09;;;;;;;;;;;;;;;15.96;48.54;97609.94;4986435;28;20049;-82
2023/03/20 10:27:37;;;;;;;;;;;;;;;16.24;47.02;97614.53;4988006;28;20360;-82
2023/03/20 10:30:12;;;;;;;;;;;;;;;16.41;45.72;97608.16;4987539;28;19970;-81
2023/03/20 10:32:40;;;;;;;;;;;;;;;16.53;45.54;97611.25;5006540;28;20040;-80
2023/03/20 10:35:12;;;;;;;;;;;;;;;16.58;45.36;97611.22;4984490;28;19926;-82
2023/03/20 10:37:40;;;;;;;;;;;;;;;16.77;45.55;97602.69;4988013;28;19922;-81
2023/03/20 10:40:20;;;;;;;;;;;;;;;16.88;44.63;97612.13;4986620;28;21852;-81
2023/03/20 10:42:46;;;;;;;;;;;;;;;16.58;44.95;97610.44;4984434;28;20385;-80
2023/03/20 10:45:11;;;;;;;;;;;;;;;16.56;44.30;97612.56;5004519;28;19924;-81
2023/03/20 10:47:37;;;;;;;;;;;;;;;16.48;44.21;97611.28;4985834;28;19917;-79
2023/03/20 10:50:18;;;;;;;;;;;;;;;16.45;44.79;97606.56;5003746;28;19965;-80
2023/03/20 10:52:45;;;;;;;;;;;;;;;16.47;43.06;97605.25;4950576;28;20131;-82
2023/03/20 10:55:11;;;;;;;;;;;;;;;16.46;43.41;97602.88;4988176;28;19918;-82
2023/03/20 10:57:38;;;;;;;;;;;;;;;16.64;43.37;97604.88;4957835;28;19921;-81
2023/03/20 11:00:03;;;;;;;;;;;;;;;16.44;44.54;97594.50;4954141;28;19944;-81
2023/03/20 11:02:30;;;;;;;;;;;;;;;16.43;43.62;97601.59;4984898;28;19924;-80
2023/03/20 11:04:58;;;;;;;;;;;;;;;16.34;41.38;97605.84;4988545;28;19929;-81
2023/03/20 11:07:27;;;;;;;;;;;;;;;16.22;42.92;97605.38;4988359;28;19917;-79
2023/03/20 11:10:05;;;;;;;;;;;;;;;16.34;43.57;97599.81;4988539;28;19922;-79
2023/03/20 11:12:34;;;;;;;;;;;;;;;16.61;42.14;97602.78;4987868;28;20414;-81
2023/03/20 11:15:01;;;;;;;;;;;;;;;16.72;42.33;97594.84;4970704;28;20004;-80
2023/03/20 11:17:29;;;;;;;;;;;;;;;16.15;42.84;97592.53;4986718;28;19925;-79
2023/03/20 11:19:57;;;;;;;;;;;;;;;16.60;41.97;97595.94;4987749;28;20285;-81
2023/03/20 11:22:26;;;;;;;;;;;;;;;16.57;39.92;97588.63;5004089;28;19925;-80
2023/03/20 11:25:00;;;;;;;;;;;;;;;16.36;40.48;97593.19;4954979;28;19918;-79
2023/03/20 11:27:27;;;;;;;;;;;;;;;16.58;39.44;97590.19;4971368;28;20004;-82
2023/03/20 11:29:52;;;;;;;;;;;;;;;16.78;40.77;97588.50;4974117;28;20040;-81
2023/03/20 11:32:17;;;;;;;;;;;;;;;16.94;40.19;97591.81;4982993;28;19964;-80
2023/03/20 11:34:43;;;;;;;;;;;;;;;16.99;40.45;97595.19;5005050;28;19924;-81
2023/03/20 11:37:20;;;;;;;;;;;;;;;16.95;38.79;97588.13;4988908;28;20012;-82
2023/03/20 11:39:52;;;;;;;;;;;;;;;16.92;39.35;97594.72;4988555;28;19924;-81
2023/03/20 11:42:21;;;;;;;;;;;;;;;16.90;39.73;97596.06;4971645;28;19933;-81
2023/03/20 11:44:46;;;;;;;;;;;;;;;16.81;39.85;97587.94;4972607;28;20126;-81
2023/03/20 11:47:14;;;;;;;;;;;;;;;16.77;40.00;97594.81;4988488;28;19928;-81
2023/03/20 11:49:46;;;;;;;;;;;;;;;16.81;40.05;97583.47;4954637;28;19918;-81
2023/03/20 11:52:13;;;;;;;;;;;;;;;16.89;40.25;97579.47;4975937;28;19918;-82
2023/03/20 11:54:38;;;;;;;;;;;;;;;16.85;39.72;97579.25;4987349;28;20413;-81
2023/03/20 11:57:04;;;;;;;;;;;;;;;16.54;40.10;97573.41;4988586;28;19932;-80
2023/03/20 11:59:31;;;;;;;;;;;;;;;16.58;39.53;97579.66;4972223;28;19924;-79
2023/03/20 12:01:57;;;;;;;;;;;;;;;16.91;38.54;97581.84;4987197;28;20378;-82
2023/03/20 12:04:33;;;;;;;;;;;;;;;16.88;37.92;97588.44;4988188;28;19929;-80
2023/03/20 12:07:11;;;;;;;;;;;;;;;16.61;37.56;97583.63;4969839;28;20413;-79
2023/03/20 12:09:57;;;;;;;;;;;;;;;16.69;36.76;97584.88;4988079;28;20029;-82
2023/03/20 12:12:41;;;;;;;;;;;;;;;17.09;37.43;97577.75;4986897;28;20354;-83
2023/03/20 12:15:12;;;;;;;;;;;;;;;17.40;36.75;97571.16;4987652;28;19925;-83
2023/03/20 12:17:40;;;;;;;;;;;;;;;17.53;35.83;97572.34;4988393;28;20384;-82
2023/03/20 12:20:26;;;;;;;;;;;;;;;17.36;36.03;97567.50;4987978;28;19969;-82
2023/03/20 12:23:10;;;;;;;;;;;;;;;17.05;36.21;97567.00;4957228;28;19929;-79
2023/03/20 12:25:39;;;;;;;;;;;;;;;16.79;36.80;97563.75;4991090;28;20352;-81
2023/03/20 12:28:05;;;;;;;;;;;;;;;16.58;37.45;97555.22;4988220;28;19922;-82
2023/03/20 12:30:30;;;;;;;;;;;;;;;16.46;37.53;97556.34;4991520;28;20282;-80
2023/03/20 12:33:03;;;;;;;;;;;;;;;16.70;37.71;97549.63;4992580;28;20394;-82
2023/03/20 12:35:30;;;;;;;;;;;;;;;17.07;39.56;97549.09;4958510;28;19917;-82
2023/03/20 12:37:55;;;;;;;;;;;;;;;17.37;38.00;97552.50;4960403;28;20077;-79
2023/03/20 12:40:24;;;;;;;;;;;;;;;17.74;36.89;97545.78;5007382;28;20005;-81
2023/03/20 12:43:22;;;;;;;;;;;;;;;17.71;38.26;97539.22;4991387;28;20337;-82
2023/03/20 12:45:52;;;;;;;;;;;;;;;17.72;38.48;97543.44;4974158;28;20382;-79
2023/03/20 12:48:21;;;;;;;;;;;;;;;17.92;37.41;97545.06;5004895;28;19921;-80
2023/03/20 12:50:54;;;;;;;;;;;;;;;17.69;39.39;97545.84;4991092;28;19925;-80